Ridgecrest, CA (93555)

8:48 PM PST on February 11, 2016 (GMT -0800)
APRSWXNET | | Change Station
CLOSE
Current Station
Personal Weather Station
Location: Ridgecrest, CA
Elevation: 2391 ft
Nearby Weather Stations

Elev 2391 ft 35.60 °N, 117.70 °W | Updated 36 minutes ago

Clear
Clear
57 °F
Feels Like 57 °F
N
1
Wind Variable Wind from SW
Gusts 3.0 mph

Today
High -- | Low -- °F
--% Chance of Precip.
Yesterday
High -- | Low -- °F
Precip. -- in
Pressure 30.22 in
Visibility 10.0 miles
Clouds Clear
Dew Point 29 °F
Humidity 34%
Rainfall in
Snow Depth Not available.
6:42 AM 5:28 PM
Waxing Crescent, 17% visible
METAR KNID 120356Z 20008KT 10SM CLR 11/M01 A3020 RMK AO2 SLP233 T01061006 $
Pressure 30.22 in
Visibility 10.0 miles
Clouds Clear
Dew Point 29 °F
Humidity 34%
Rainfall in
Snow Depth Not available.
6:42 AM 5:28 PM
Waxing Crescent, 17% visible
METAR KNID 120356Z 20008KT 10SM CLR 11/M01 A3020 RMK AO2 SLP233 T01061006 $

10-Day Weather Forecast

Almanac

Astronomy

Feb. 11, 2016 Rise Set
Actual Time
Civil Twilight
Nautical Twilight
Astronomical Twilight
Moon
Length of Visible Light
Length of Day
Tomorrow will be .
, % of the Moon is Illuminated

Today's Extremes

State Highs State Lows

Community

WunderPhotos

Upload Photos

1,892,268 photos uploaded!

WunderBlog® & News

Nearby

Air Quality

  Air Quality AQ Index Pollutant
Not available.

Snow Depth

Station Depth Elevation

Earthquake Activity

City Distance Mag. Time & Date
Minimum magnitude displayed is 2.5.

Coastal Water Temperatures

Place Temperature

Stations

Nearby Weather Stations

Station Location Temp. Windchill Dew Point Humidity Wind Precip. Elev Updated Type
                   

Watches & Warnings

There are currently no watches in effect.